METAR Data
IDs: Format: Raw Decoded Include TAF

Data at: 1718 UTC 24 Aug 2019

PASC 241653Z 27016KT 4SM -RA BR OVC006 06/05 A2962 RMK AO2 SLP030 P0000 T00610050 $
PASC 241650Z 27017KT 4SM -RA BR OVC006 06/05 A2962 RMK AO2 P0000 $
PASC 241553Z 27014KT 2SM -RA BR OVC007 06/05 A2961 RMK AO2 SLP028 P0000 T00610050 $
PASC 241540Z 26016KT 2SM -RA BR OVC007 06/05 A2961 RMK AO2 P0000 T00560050 $
PASC 241502Z 25018KT 1SM R06/P6000FT -RA BR VV007 05/04 A2961 RMK AO2 P0000 T00500044 $
PASC 241453Z 24017KT 3SM -RA BR OVC007 05/04 A2961 RMK AO2 PK WND 23026/1358 SLP026 P0000 60000 T00500044 55008 $
PASC 241353Z 24019KT 3SM -RA BR OVC009 05/04 A2960 RMK AO2 PK WND 24029/1302 SLP025 P0000 T00500039 $
PASC 241329Z 24018G26KT 3SM -RA BR SCT006 OVC010 04/04 A2961 RMK AO2 PK WND 24029/1302 P0000 T00440039 $
PASC 241253Z 24019G28KT 4SM -RA BR OVC007 04/03 A2962 RMK AO2 PK WND 24028/1250 SLP030 P0000 T00440033 $
PASC 241153Z 23019G29KT 10SM -RA OVC009 04/03 A2963 RMK AO2 PK WND 23030/1129 SLP035 P0000 60000 T00390028 10039 20033 56016 $
PASC 241130Z 24022G30KT 10SM -RA OVC009 04/02 A2964 RMK AO2 PK WND 23030/1129 P0000 T00390022 $
PASC 241053Z 23020G27KT 10SM -RA BKN011 OVC024 03/02 A2964 RMK AO2 PK WND 23028/1040 SLP038 P0000 T00330022 $
PASC 240953Z 23016KT 10SM -RA BKN012 BKN015 OVC032 03/02 A2966 RMK AO2 SLP046 P0000 T00330017 $
PASC 240853Z 24016KT 10SM -RA BKN012 BKN016 OVC040 03/02 A2968 RMK AO2 SLP051 P0000 60000 T00330022 400560028 58008 $
PASC 240825Z 25016KT 10SM -RA BKN012 BKN018 OVC040 03/02 A2968 RMK AO2 P0000 T00330022 $
PASC 240753Z 24012KT 10SM -RA SCT010 BKN017 OVC035 03/02 A2969 RMK AO2 SLP054 P0000 T00330022 $
PASC 240722Z 25017KT 10SM -RA SCT012 BKN019 OVC035 03/02 A2969 RMK AO2 P0000 T00330022 $
PASC 240653Z 25013KT 10SM -RA SCT013 SCT035 OVC055 03/02 A2970 RMK AO2 RAE17B42 SLP057 P0000 T00330022 $
PASC 240553Z 26010KT 10SM -RA FEW009 BKN025 OVC080 03/02 A2970 RMK RAB0458E07B30 SLP059 P0000 60000 T00330022 10056 20033 50000 $ VIA AUTODIAL
PASC 240551Z 26010KT 10SM -RA FEW009 BKN014 OVC075 03/02 A2970 RMK RAB0458E07B30 P0000 $ VIA AUTODIAL
PASC 240532Z 26012KT 10SM -RA FEW009 BKN015 OVC100 03/02 A2971 RMK AO2 RAB0458E07B30 P0000 T00330022 $
PASC 240455Z 27012KT 10SM FEW014 BKN021 OVC032 04/01 A2971 RMK AO2 VCSH SW T00390006 $
PASC 240453Z 27010KT 10SM FEW015 SCT024 OVC035 04/01 A2971 RMK AO2 SLP060 VCSH SW T00390006 $
PASC 240353Z 29011KT 10SM FEW018 BKN024 OVC110 04/01 A2970 RMK AO2 SLP059 VCSH SE-NW T00440006 $
PASC 240253Z 31010KT 10SM FEW016 BKN025 OVC033 04/01 A2970 RMK AO2 SLP059 OVC V BKN VCSH SW-E 60000 T00440011 51012 $
PASC 240159Z 31012KT 10SM FEW019 SCT027 BKN036 BKN250 04/01 A2970 RMK AO2 VCSH SW-E T00440011 $
PASC 240153Z 31014KT 10SM SCT012 OVC021 04/01 A2970 RMK AO2 SLP058 OVC V BKN VCSH ALQDS T00440006 $
PASC 240053Z 32014KT 10SM SCT015 BKN021 OVC030 05/01 A2968 RMK AO2 RAE01 SLP052 VCSH ALQDS P0000 T00500011 $
PASC 232353Z COR 32017KT 7SM -RA SCT015 BKN021 OVC030 04/02 A2967 RMK AO2 RAB46 SLP048 OVC V BKN P0000 60000 T00390022 10050 20033 53023 $
PASC 232253Z 31016KT 10SM FEW017 SCT025 OVC044 04/01 A2965 RMK AO2 RAE31B50E53 SLP040 VCSH SE-NW P0000 T00390011 $
PASC 232153Z 30017G27KT 6SM -RA BR SCT021 BKN039 OVC048 04/01 A2962 RMK AO2 PK WND 30027/2145 RAB18E27B47 SLP031 P0000 T00440006 $
PASC 232143Z 30019KT 7SM SCT020 SCT030 BKN040 05/01 A2962 RMK AO2 RAB18E27 P0000 T00500006 $
PASC 232122Z 29016KT 7SM -RA SCT017 BKN023 OVC045 04/02 A2961 RMK AO2 RAB18 P0000 T00440017 $
PASC 232053Z 29017G25KT 7SM SCT019 BKN033 OVC048 04/01 A2960 RMK AO2 SLP024 60000 T00390011 51014
PASC 232048Z 30016G23KT 7SM SCT017 BKN025 OVC055 04/01 A2960 RMK AO2
PASC 232019Z 28018KT 7SM FEW019 BKN036 OVC050 04/01 A2959 RMK AO2 T00440006 $
PASC 232006Z 29015KT 7SM FEW020 BKN026 OVC050 04/01 A2959 RMK AO2 T00390006
PASC 231953Z 32016KT 7SM FEW018 BKN038 OVC048 04/01 A2958 RMK AO2 PK WND 32029/1902 SLP019 T00390006
PASC 231938Z 29015KT 7SM FEW019 SCT041 OVC049 04/01 A2958 RMK AO2 PK WND 32029/1902 T00390006
PASC 231902Z 31020G29KT 7SM BKN018 BKN025 OVC033 04/01 A2956 RMK AO2 PK WND 32029/1902 T00390011 $
PASC 231853Z 31015KT 6SM HZ FEW017 BKN038 OVC048 04/01 A2956 RMK AO2 RAE1755B41E52 SLP011 P0000 T00390011 $
PASC 231841Z 30015KT 6SM -RA BR BKN019 BKN028 OVC039 03/01 A2956 RMK AO2 RAE1755B41 P0000 T00330011 /
PASC 231753Z 30016G24KT 5SM -RA BR SCT010 BKN016 OVC022 03/02 A2953 RMK AO2 RAB34SNB33E34 SLP002 P0000 60000 T00280017 10044 20028 53015 $
PASC 231742Z 30016KT 5SM -RA BR FEW010 BKN015 OVC020 03/02 A2953 RMK AO2 RAB34SNB33E34 P0000 T00330017 $
PASC 231730Z 30017G22KT 7SM BKN014 OVC022 03/02 A2953 RMK AO2 T00330017 $
PASC 231705Z 30016KT 7SM FEW016 BKN021 OVC046 04/01 A2952 RMK AO2 T00390011
PASC 231653Z 30013KT 6SM BR SCT020 OVC047 04/02 A2951 RMK AO2 RAE51 SLP995 P0000 T00390017
PASC 231618Z 30014KT 5SM -RA BR FEW009 BKN038 OVC048 03/02 A2951 RMK AO2 P0000 T00330022 $
PASC 231608Z 30013KT 5SM -RA BR SCT009 BKN015 OVC027 03/02 A2951 RMK AO2 P0000 T00330022 $
PASC 231602Z 30017KT 5SM -RA BR BKN010 BKN015 OVC023 03/02 A2951 RMK AO2 P0000 T00330022 $
PASC 231553Z 30016KT 5SM -RA BR SCT010 BKN015 OVC030 04/02 A2950 RMK AO2 SLP992 P0000 T00390022 $
PASC 231507Z 31011KT 5SM -RA BR FEW008 OVC025 04/03 A2949 RMK AO2 P0000 T00390028 $
PASC 231500Z 30014KT -RA OVC025 04/03 A2949 RMK AO2 P0000 T00390028 $
PASC 231453Z 30012KT 3/4SM R06/P6000FT -RA BR OVC008 04/03 A2949 RMK AO2 WSHFT 1344 SLP987 P0000 60000 T00390033 53003 $
PASC 231358Z 30012KT 3/4SM R06/5500VP6000FT -RA BR OVC008 04/04 A2948 RMK AO2 WSHFT 1344 P0000 T00440039 $
PASC 231353Z 28012KT 3/4SM R06/5500VP6000FT -RA BR BKN008 OVC012 04/04 A2948 RMK AO2 SLP984 P0000 T00440039 $
PASC 231341Z 24018KT 1 3/4SM -RA BR OVC009 04/03 A2948 RMK AO2 P0000 T00440033 $
PASC 231329Z 24017KT 2 1/2SM -RA BR OVC007 04/03 A2948 RMK AO2 P0000 T00440033 $
PASC 231253Z 23017KT 7SM -RA BKN009 OVC014 04/03 A2948 RMK AO2 SLP984 P0000 T00440033 $
PASC 231207Z 23015KT 10SM -RA BKN014 OVC020 04/03 A2949 RMK AO2 P0000 T00440033 $
PASC 231153Z 23016KT 10SM -RA OVC018 04/03 A2950 RMK AO2 SLP990 P0000 60000 T00440033 10050 20039 58021 $
PASC 231053Z 23014KT 10SM -RA BKN021 BKN026 OVC035 04/03 A2952 RMK AO2 RAB08 SLP996 P0000 T00440028 $
PASC 230953Z 22014KT 10SM FEW028 SCT041 OVC065 04/03 A2954 RMK AO2 RAE52 SLP005 P0000 T00440033 $
PASC 230853Z 22010KT 10SM -RA SCT028 BKN041 OVC070 04/02 A2956 RMK AO2 SLP010 P0000 60000 T00390022 400780039 58015 $
PASC 230840Z 22010KT 10SM -RA FEW015 SCT028 OVC041 04/03 A2956 RMK AO2 P0000 T00440028 $
PASC 230753Z 24009KT 10SM -RA SCT014 BKN022 OVC040 04/03 A2958 RMK AO2 SLP017 P0000 T00440028 $
PASC 230702Z 25007KT 10SM -RA BKN021 OVC037 05/03 A2959 RMK AO2 P0000 T00500033 $
PASC 230653Z 26006KT 10SM -RA SCT022 OVC045 05/03 A2959 RMK AO2 RAB39 SLP022 P0000 T00500033 $
PASC 230637Z 26007KT 10SM SCT022 BKN055 OVC100 05/03 A2960 RMK AO2 T00500033 $
PASC 230553Z 25004KT 10SM SCT014 BKN020 OVC085 05/03 A2960 RMK AO2 CIG 017V025 SLP025 60000 T00500033 10072 20050 58012 $
PASC 230543Z 26006KT 10SM BKN016 BKN025 OVC085 05/03 A2961 RMK AO2 T00500033 $